Time;durP1;ratioP1;P1;durP2;ratioP2;P2;SDS_P1;SDS_P2;PMS_P1;PMS_P2;Temp;Humidity;BMP_temperature;BMP_pressure;BME280_temperature;BME280_humidity;BME280_pressure;Samples;Min_cycle;Max_cycle;Signal;HPM_P1;HPM_P2
2024/01/06 00:02:08;;;;;;;5.45;2.40;;;;;;;;;;4986286;28;87353;-85
2024/01/06 00:04:34;;;;;;;5.38;2.40;;;;;;;;;;4987915;28;89637;-84
2024/01/06 00:07:01;;;;;;;6.32;2.67;;;;;;;;;;4985424;28;87664;-84
2024/01/06 00:09:28;;;;;;;6.07;2.60;;;;;;;;;;4986586;28;96118;-85
2024/01/06 00:11:54;;;;;;;5.05;2.28;;;;;;;;;;4986088;28;90567;-84
2024/01/06 00:14:21;;;;;;;5.90;2.30;;;;;;;;;;4984550;28;89445;-84
2024/01/06 00:16:47;;;;;;;4.68;2.17;;;;;;;;;;4987867;28;87762;-84
2024/01/06 00:19:14;;;;;;;5.55;2.60;;;;;;;;;;4985429;28;91043;-84
2024/01/06 00:21:41;;;;;;;4.47;2.05;;;;;;;;;;4984814;28;89378;-84
2024/01/06 00:24:07;;;;;;;4.20;2.25;;;;;;;;;;4985789;28;90707;-84
2024/01/06 00:26:34;;;;;;;3.92;2.22;;;;;;;;;;4988214;28;87606;-84
2024/01/06 00:29:00;;;;;;;4.32;1.92;;;;;;;;;;4987079;28;87962;-84
2024/01/06 00:31:27;;;;;;;4.00;1.92;;;;;;;;;;4984968;28;90957;-83
2024/01/06 00:33:54;;;;;;;3.75;1.90;;;;;;;;;;4985341;28;88265;-83
2024/01/06 00:36:21;;;;;;;4.63;1.95;;;;;;;;;;4966847;28;93492;-84
2024/01/06 00:38:48;;;;;;;4.50;1.98;;;;;;;;;;4984107;28;88999;-85
2024/01/06 00:41:15;;;;;;;5.60;2.13;;;;;;;;;;4984899;28;89196;-84
2024/01/06 00:43:42;;;;;;;4.05;1.85;;;;;;;;;;4988616;28;88036;-85
2024/01/06 00:46:08;;;;;;;5.38;1.90;;;;;;;;;;4988198;28;88392;-85
2024/01/06 00:48:35;;;;;;;2.97;1.63;;;;;;;;;;4985506;28;87770;-83
2024/01/06 00:51:02;;;;;;;4.32;2.10;;;;;;;;;;4983635;28;89783;-84
2024/01/06 00:53:28;;;;;;;4.20;2.03;;;;;;;;;;4985286;28;89502;-85
2024/01/06 00:55:55;;;;;;;4.80;1.80;;;;;;;;;;4968237;28;90056;-83
2024/01/06 00:58:21;;;;;;;3.30;1.90;;;;;;;;;;4982254;28;91341;-84
2024/01/06 01:00:48;;;;;;;6.68;2.10;;;;;;;;;;4986354;28;87718;-84
2024/01/06 01:03:14;;;;;;;5.63;1.88;;;;;;;;;;4984650;28;90033;-85
2024/01/06 01:05:41;;;;;;;4.80;1.67;;;;;;;;;;4984016;28;90932;-86
2024/01/06 01:08:08;;;;;;;4.70;1.67;;;;;;;;;;4987480;28;89150;-85
2024/01/06 01:10:34;;;;;;;4.53;1.90;;;;;;;;;;4988012;28;87730;-85
2024/01/06 01:13:01;;;;;;;3.88;1.90;;;;;;;;;;4987994;28;87654;-85
2024/01/06 01:15:27;;;;;;;3.47;1.88;;;;;;;;;;4989268;28;88324;-84
2024/01/06 01:17:54;;;;;;;2.80;1.60;;;;;;;;;;4989052;28;88418;-84
2024/01/06 01:20:21;;;;;;;2.83;1.63;;;;;;;;;;4968677;28;88279;-85
2024/01/06 01:22:47;;;;;;;3.63;1.83;;;;;;;;;;4967205;28;90375;-85
2024/01/06 01:25:14;;;;;;;3.83;1.80;;;;;;;;;;4969736;28;88164;-85
2024/01/06 01:27:40;;;;;;;4.25;2.00;;;;;;;;;;4979424;28;89857;-85
2024/01/06 01:30:07;;;;;;;6.82;2.00;;;;;;;;;;4971596;28;89464;-83
2024/01/06 01:32:34;;;;;;;3.92;1.88;;;;;;;;;;4989206;28;88273;-83
2024/01/06 01:35:01;;;;;;;4.40;1.80;;;;;;;;;;4981160;28;89995;-82
2024/01/06 01:37:28;;;;;;;5.03;1.80;;;;;;;;;;4982608;28;93247;-82
2024/01/06 01:39:54;;;;;;;4.43;1.75;;;;;;;;;;4985742;28;92182;-82
2024/01/06 01:42:21;;;;;;;4.65;1.70;;;;;;;;;;4984157;28;94357;-81
2024/01/06 01:44:47;;;;;;;4.50;1.67;;;;;;;;;;4967643;28;94508;-82
2024/01/06 01:47:18;;;;;;;4.65;1.70;;;;;;;;;;4983218;28;94856;-82
2024/01/06 01:49:48;;;;;;;4.32;1.65;;;;;;;;;;4968310;28;97510;-82
2024/01/06 01:52:15;;;;;;;4.40;1.80;;;;;;;;;;4988687;28;94992;-83
2024/01/06 01:54:42;;;;;;;5.03;1.77;;;;;;;;;;4985631;28;94768;-84
2024/01/06 01:57:10;;;;;;;3.90;1.90;;;;;;;;;;4984901;28;95079;-84
2024/01/06 01:59:37;;;;;;;3.42;1.80;;;;;;;;;;4984573;28;94167;-84
2024/01/06 02:02:04;;;;;;;3.17;1.70;;;;;;;;;;4968500;28;94751;-85
2024/01/06 02:04:31;;;;;;;3.20;1.67;;;;;;;;;;4984152;28;94696;-84
2024/01/06 02:06:57;;;;;;;3.42;1.70;;;;;;;;;;4984323;28;92091;-84
2024/01/06 02:09:26;;;;;;;2.40;1.60;;;;;;;;;;4967435;28;95104;-85
2024/01/06 02:11:53;;;;;;;2.45;1.63;;;;;;;;;;4982944;28;95168;-85
2024/01/06 02:14:20;;;;;;;5.47;1.60;;;;;;;;;;4987651;28;92186;-85
2024/01/06 02:16:47;;;;;;;5.95;2.60;;;;;;;;;;4985181;28;92772;-84
2024/01/06 02:19:15;;;;;;;3.78;1.52;;;;;;;;;;4985316;28;92027;-84
2024/01/06 02:21:43;;;;;;;3.15;1.50;;;;;;;;;;4984350;28;92367;-85
2024/01/06 02:24:10;;;;;;;3.95;1.63;;;;;;;;;;4984295;28;92709;-85
2024/01/06 02:26:37;;;;;;;3.17;1.38;;;;;;;;;;4984298;28;92669;-85
2024/01/06 02:29:03;;;;;;;4.45;1.80;;;;;;;;;;4984028;28;95039;-84
2024/01/06 02:31:30;;;;;;;2.80;1.45;;;;;;;;;;4980103;28;95645;-87
2024/01/06 02:33:57;;;;;;;7.53;1.55;;;;;;;;;;4980979;28;92448;-86
2024/01/06 02:36:24;;;;;;;3.80;1.70;;;;;;;;;;4965629;28;95228;-85
2024/01/06 02:38:50;;;;;;;2.50;1.42;;;;;;;;;;4957592;28;92590;-85
2024/01/06 02:41:17;;;;;;;4.30;1.70;;;;;;;;;;4983893;28;92454;-85
2024/01/06 02:43:43;;;;;;;3.47;1.70;;;;;;;;;;4983574;28;93194;-84
2024/01/06 02:46:10;;;;;;;2.60;1.42;;;;;;;;;;4967543;28;92621;-83
2024/01/06 02:48:36;;;;;;;3.10;1.50;;;;;;;;;;4965778;28;95088;-82
2024/01/06 02:51:03;;;;;;;4.70;1.60;;;;;;;;;;4983508;28;92751;-84
2024/01/06 02:53:30;;;;;;;4.18;1.60;;;;;;;;;;4967635;28;91549;-86
2024/01/06 02:55:57;;;;;;;7.10;1.70;;;;;;;;;;4986526;28;93367;-83
2024/01/06 02:58:23;;;;;;;3.70;1.58;;;;;;;;;;4982080;28;92114;-83
2024/01/06 03:00:50;;;;;;;2.50;1.42;;;;;;;;;;4981015;28;94694;-83
2024/01/06 03:03:17;;;;;;;3.83;1.52;;;;;;;;;;4982118;28;95126;-82
2024/01/06 03:05:43;;;;;;;3.63;1.60;;;;;;;;;;4982719;28;92338;-85
2024/01/06 03:08:10;;;;;;;6.97;1.77;;;;;;;;;;4984171;28;93296;-85
2024/01/06 03:10:38;;;;;;;4.68;1.70;;;;;;;;;;4983535;28;93039;-84
2024/01/06 03:13:04;;;;;;;6.20;1.85;;;;;;;;;;4984807;28;92551;-85
2024/01/06 03:15:31;;;;;;;5.53;1.83;;;;;;;;;;4983860;28;92399;-84
2024/01/06 03:17:57;;;;;;;3.38;1.58;;;;;;;;;;4986911;28;93914;-83
2024/01/06 03:20:24;;;;;;;3.03;1.65;;;;;;;;;;4984803;28;92738;-85
2024/01/06 03:22:51;;;;;;;4.13;1.65;;;;;;;;;;4983067;28;92477;-83
2024/01/06 03:25:17;;;;;;;3.55;1.50;;;;;;;;;;4982832;28;94701;-84
2024/01/06 03:27:44;;;;;;;4.68;1.73;;;;;;;;;;4985067;28;95115;-83
2024/01/06 03:30:11;;;;;;;4.63;1.73;;;;;;;;;;4982919;28;95256;-83
2024/01/06 03:32:38;;;;;;;6.85;2.33;;;;;;;;;;4997083;27;92345;-83
2024/01/06 03:35:06;;;;;;;7.78;2.00;;;;;;;;;;4976539;28;92463;-84
2024/01/06 03:37:33;;;;;;;4.57;1.80;;;;;;;;;;4953023;28;92925;-84
2024/01/06 03:39:59;;;;;;;5.25;2.10;;;;;;;;;;4985898;28;92294;-85
2024/01/06 03:42:26;;;;;;;5.95;1.90;;;;;;;;;;4983745;28;92328;-85
2024/01/06 03:44:52;;;;;;;6.35;2.08;;;;;;;;;;4983436;28;92808;-84
2024/01/06 03:47:19;;;;;;;6.53;2.20;;;;;;;;;;4982295;28;94123;-85
2024/01/06 03:49:46;;;;;;;4.63;2.15;;;;;;;;;;4982250;28;95914;-84
2024/01/06 03:52:13;;;;;;;3.38;1.65;;;;;;;;;;4983253;28;92218;-84
2024/01/06 03:54:40;;;;;;;6.28;1.70;;;;;;;;;;4983745;28;96790;-85
2024/01/06 03:57:07;;;;;;;3.63;1.70;;;;;;;;;;4983230;28;92793;-86
2024/01/06 03:59:33;;;;;;;4.10;1.67;;;;;;;;;;4982998;28;92116;-85
2024/01/06 04:02:00;;;;;;;5.90;1.95;;;;;;;;;;4985734;28;93081;-84
2024/01/06 04:04:26;;;;;;;4.00;1.52;;;;;;;;;;4964755;28;92502;-84
2024/01/06 04:06:53;;;;;;;5.15;1.80;;;;;;;;;;4981984;28;94359;-84
2024/01/06 04:09:20;;;;;;;8.27;1.73;;;;;;;;;;4982444;28;93066;-85
2024/01/06 04:11:47;;;;;;;4.32;1.67;;;;;;;;;;4983115;28;92134;-84
2024/01/06 04:14:13;;;;;;;4.55;1.83;;;;;;;;;;4981274;28;94456;-84
2024/01/06 04:16:40;;;;;;;3.50;1.70;;;;;;;;;;4983037;28;93222;-85
2024/01/06 04:19:07;;;;;;;4.68;1.90;;;;;;;;;;4982707;28;92184;-84
2024/01/06 04:21:34;;;;;;;3.63;1.83;;;;;;;;;;4982834;28;92155;-84
2024/01/06 04:24:00;;;;;;;5.22;1.88;;;;;;;;;;4987391;28;92675;-84
2024/01/06 04:26:27;;;;;;;4.53;1.92;;;;;;;;;;4981598;28;95638;-84
2024/01/06 04:28:54;;;;;;;5.75;1.90;;;;;;;;;;4984018;28;92583;-84
2024/01/06 04:31:20;;;;;;;5.28;2.10;;;;;;;;;;4980639;28;91377;-85
2024/01/06 04:33:47;;;;;;;3.97;2.08;;;;;;;;;;4970848;28;91982;-85
2024/01/06 04:36:14;;;;;;;4.05;2.00;;;;;;;;;;4965891;28;93083;-84
2024/01/06 04:38:40;;;;;;;4.38;1.88;;;;;;;;;;4970177;28;94590;-85
2024/01/06 04:41:07;;;;;;;3.88;1.70;;;;;;;;;;4962479;28;97650;-85
2024/01/06 04:43:34;;;;;;;3.92;1.70;;;;;;;;;;4971674;28;92884;-85
2024/01/06 04:46:00;;;;;;;4.70;1.75;;;;;;;;;;4985042;28;92265;-85
2024/01/06 04:48:27;;;;;;;3.22;1.60;;;;;;;;;;4981527;28;92804;-84
2024/01/06 04:50:53;;;;;;;4.53;1.55;;;;;;;;;;4981291;28;92114;-85
2024/01/06 04:53:20;;;;;;;2.97;1.40;;;;;;;;;;4981747;28;95175;-85
2024/01/06 04:55:46;;;;;;;3.75;1.50;;;;;;;;;;4982473;28;92339;-85
2024/01/06 04:58:13;;;;;;;4.32;1.83;;;;;;;;;;4983864;28;98238;-84
2024/01/06 05:00:40;;;;;;;3.22;1.40;;;;;;;;;;4982033;28;92667;-86
2024/01/06 05:03:06;;;;;;;3.03;1.63;;;;;;;;;;4980163;28;95977;-88
2024/01/06 05:05:33;;;;;;;2.88;1.58;;;;;;;;;;4986522;28;99611;-86
2024/01/06 05:08:00;;;;;;;5.43;1.85;;;;;;;;;;4965008;28;94940;-85
2024/01/06 05:10:26;;;;;;;3.95;1.92;;;;;;;;;;4980326;28;92259;-85
2024/01/06 05:12:53;;;;;;;3.47;1.60;;;;;;;;;;4982436;28;92313;-85
2024/01/06 05:15:19;;;;;;;3.80;1.80;;;;;;;;;;4982345;28;93069;-84
2024/01/06 05:17:46;;;;;;;5.00;1.80;;;;;;;;;;4981678;28;92280;-86
2024/01/06 05:20:13;;;;;;;4.68;2.00;;;;;;;;;;4981809;28;92330;-85
2024/01/06 05:22:39;;;;;;;4.28;1.83;;;;;;;;;;4980944;28;100090;-86
2024/01/06 05:25:06;;;;;;;7.95;1.90;;;;;;;;;;4980875;28;92299;-85
2024/01/06 05:27:32;;;;;;;4.18;1.70;;;;;;;;;;4983246;28;94864;-85
2024/01/06 05:29:59;;;;;;;3.33;1.60;;;;;;;;;;4981332;28;92068;-85
2024/01/06 05:32:26;;;;;;;3.97;1.58;;;;;;;;;;4994121;27;94053;-85
2024/01/06 05:34:52;;;;;;;3.90;1.60;;;;;;;;;;4979154;28;94560;-84
2024/01/06 05:37:19;;;;;;;3.60;1.60;;;;;;;;;;4980878;28;92163;-84
2024/01/06 05:39:45;;;;;;;4.47;1.48;;;;;;;;;;4981153;28;92223;-86
2024/01/06 05:42:12;;;;;;;3.40;1.38;;;;;;;;;;4981048;28;94700;-85
2024/01/06 05:44:39;;;;;;;3.97;1.58;;;;;;;;;;4982507;28;91603;-86
2024/01/06 05:47:06;;;;;;;3.88;1.70;;;;;;;;;;4981893;28;94437;-86
2024/01/06 05:49:33;;;;;;;4.43;1.85;;;;;;;;;;4984064;28;95100;-85
2024/01/06 05:51:59;;;;;;;3.47;1.70;;;;;;;;;;4964393;28;95065;-85
2024/01/06 05:54:26;;;;;;;4.13;1.83;;;;;;;;;;4980897;28;92567;-85
2024/01/06 05:56:53;;;;;;;4.72;1.90;;;;;;;;;;4985955;28;92856;-84
2024/01/06 05:59:19;;;;;;;4.25;1.73;;;;;;;;;;4986368;28;92731;-85
2024/01/06 06:01:46;;;;;;;3.95;1.65;;;;;;;;;;4969190;28;94958;-85
2024/01/06 06:04:13;;;;;;;3.75;1.80;;;;;;;;;;4969014;28;92249;-86
2024/01/06 06:06:39;;;;;;;3.55;1.60;;;;;;;;;;4985617;28;96822;-87
2024/01/06 06:09:07;;;;;;;4.03;1.60;;;;;;;;;;4987272;28;91608;-86
2024/01/06 06:11:34;;;;;;;4.30;1.65;;;;;;;;;;4972751;28;92403;-85
2024/01/06 06:14:02;;;;;;;4.45;1.80;;;;;;;;;;4986095;28;92773;-81
2024/01/06 06:16:29;;;;;;;4.35;1.70;;;;;;;;;;4982175;28;94389;-84
2024/01/06 06:18:56;;;;;;;4.05;1.83;;;;;;;;;;4987077;28;94768;-84
2024/01/06 06:21:23;;;;;;;5.18;2.10;;;;;;;;;;4971926;28;94794;-84
2024/01/06 06:23:50;;;;;;;4.93;2.03;;;;;;;;;;4971707;28;92141;-84
2024/01/06 06:26:17;;;;;;;9.73;1.92;;;;;;;;;;4967769;28;95065;-84
2024/01/06 06:28:43;;;;;;;7.80;2.30;;;;;;;;;;4986475;28;95091;-85
2024/01/06 06:31:10;;;;;;;10.13;2.03;;;;;;;;;;4987858;28;92170;-84
2024/01/06 06:33:37;;;;;;;6.60;2.10;;;;;;;;;;4991326;28;92462;-84
2024/01/06 06:36:04;;;;;;;5.75;1.90;;;;;;;;;;4967484;28;92275;-83
2024/01/06 06:38:30;;;;;;;5.45;2.15;;;;;;;;;;4983294;28;94302;-83
2024/01/06 06:40:57;;;;;;;6.05;2.17;;;;;;;;;;4983007;28;95893;-84
2024/01/06 06:43:24;;;;;;;6.22;1.90;;;;;;;;;;4985455;28;92569;-84
2024/01/06 06:45:50;;;;;;;4.80;2.20;;;;;;;;;;4984640;28;92463;-84
2024/01/06 06:48:17;;;;;;;5.05;2.10;;;;;;;;;;4984708;28;93167;-84
2024/01/06 06:50:44;;;;;;;4.68;2.10;;;;;;;;;;4984103;28;92221;-85
2024/01/06 06:53:10;;;;;;;6.82;2.30;;;;;;;;;;4987113;28;94512;-85
2024/01/06 06:55:37;;;;;;;4.55;2.00;;;;;;;;;;4985077;28;92202;-85
2024/01/06 06:58:05;;;;;;;9.15;2.20;;;;;;;;;;4984537;28;91790;-84
2024/01/06 07:00:32;;;;;;;4.60;2.00;;;;;;;;;;4982156;28;93036;-83
2024/01/06 07:02:59;;;;;;;;;;;;;;;;;;4984456;28;92352;-83
2024/01/06 07:05:26;;;;;;;6.43;2.47;;;;;;;;;;4984673;28;94994;-84
2024/01/06 07:07:53;;;;;;;6.47;2.10;;;;;;;;;;4967590;28;96263;-84
2024/01/06 07:10:20;;;;;;;5.10;2.15;;;;;;;;;;4982849;28;93743;-84
2024/01/06 07:12:46;;;;;;;5.03;2.10;;;;;;;;;;4983817;28;94633;-86
2024/01/06 07:15:13;;;;;;;5.68;2.10;;;;;;;;;;4970213;28;95558;-84
2024/01/06 07:17:40;;;;;;;5.18;2.03;;;;;;;;;;4983838;28;95040;-85
2024/01/06 07:20:07;;;;;;;5.75;2.20;;;;;;;;;;4983201;28;93316;-83
2024/01/06 07:22:34;;;;;;;6.25;2.20;;;;;;;;;;4983626;28;91425;-84
2024/01/06 07:25:01;;;;;;;6.00;2.40;;;;;;;;;;4982401;28;94922;-85
2024/01/06 07:27:28;;;;;;;6.40;2.15;;;;;;;;;;4965475;28;92845;-85
2024/01/06 07:29:55;;;;;;;12.57;2.10;;;;;;;;;;4980658;28;94764;-85
2024/01/06 07:32:24;;;;;;;7.60;2.17;;;;;;;;;;4994095;27;95098;-86
2024/01/06 07:34:51;;;;;;;7.85;2.28;;;;;;;;;;4979048;28;95424;-87
2024/01/06 07:37:18;;;;;;;5.50;1.95;;;;;;;;;;4983361;28;92212;-85
2024/01/06 07:39:44;;;;;;;6.65;2.22;;;;;;;;;;4981062;28;92753;-85
2024/01/06 07:42:11;;;;;;;6.70;2.15;;;;;;;;;;4965442;28;92053;-82
2024/01/06 07:44:38;;;;;;;5.75;1.80;;;;;;;;;;4981989;28;97685;-81
2024/01/06 07:47:05;;;;;;;5.63;1.85;;;;;;;;;;4984005;28;92103;-83
2024/01/06 07:49:32;;;;;;;4.82;1.70;;;;;;;;;;4965292;28;92269;-83
2024/01/06 07:51:59;;;;;;;4.47;1.50;;;;;;;;;;4964386;28;94748;-82
2024/01/06 07:54:26;;;;;;;5.07;1.60;;;;;;;;;;4978996;28;98943;-83
2024/01/06 07:56:53;;;;;;;4.28;1.30;;;;;;;;;;4982671;28;92035;-82
2024/01/06 07:59:20;;;;;;;3.28;1.30;;;;;;;;;;4967481;28;94745;-84
2024/01/06 08:01:46;;;;;;;4.40;1.42;;;;;;;;;;4982384;28;92229;-83
2024/01/06 08:04:13;;;;;;;4.93;1.50;;;;;;;;;;4980118;28;94590;-82
2024/01/06 08:06:40;;;;;;;3.45;1.20;;;;;;;;;;4982308;28;93375;-83
2024/01/06 08:09:08;;;;;;;6.78;1.60;;;;;;;;;;4980431;28;92446;-82
2024/01/06 08:11:35;;;;;;;3.13;1.20;;;;;;;;;;4963347;28;95217;-82
2024/01/06 08:14:01;;;;;;;6.38;1.40;;;;;;;;;;4980276;28;93285;-83
2024/01/06 08:16:28;;;;;;;4.50;1.42;;;;;;;;;;4979149;28;92156;-83
2024/01/06 08:18:54;;;;;;;4.75;1.20;;;;;;;;;;4978048;28;94348;-82
2024/01/06 08:21:21;;;;;;;6.43;1.40;;;;;;;;;;4982866;28;92730;-82
2024/01/06 08:23:48;;;;;;;7.50;1.33;;;;;;;;;;4980666;28;94107;-80
2024/01/06 08:26:15;;;;;;;6.07;1.40;;;;;;;;;;4978980;28;95624;-82
2024/01/06 08:28:42;;;;;;;5.03;1.30;;;;;;;;;;4981122;28;92355;-79
2024/01/06 08:31:08;;;;;;;4.22;1.25;;;;;;;;;;4982002;28;95282;-81
2024/01/06 08:33:35;;;;;;;4.05;1.23;;;;;;;;;;4969304;28;95446;-80
2024/01/06 08:36:02;;;;;;;4.95;1.20;;;;;;;;;;4965138;28;91630;-82
2024/01/06 08:38:29;;;;;;;3.47;1.20;;;;;;;;;;4967145;28;93495;-81
2024/01/06 08:40:57;;;;;;;2.30;1.10;;;;;;;;;;4978786;28;93732;-81
2024/01/06 08:43:23;;;;;;;2.25;1.13;;;;;;;;;;4982439;28;94711;-82
2024/01/06 08:45:50;;;;;;;19.10;2.03;;;;;;;;;;4978956;28;95247;-82
2024/01/06 08:48:18;;;;;;;4.57;1.48;;;;;;;;;;4977980;28;92271;-82
2024/01/06 08:50:48;;;;;;;4.13;1.40;;;;;;;;;;4979716;28;92680;-82
2024/01/06 08:53:15;;;;;;;2.55;1.02;;;;;;;;;;4979894;28;95387;-83
2024/01/06 08:55:42;;;;;;;3.45;1.20;;;;;;;;;;4981781;28;92085;-82
2024/01/06 08:58:13;;;;;;;5.05;1.27;;;;;;;;;;4982383;28;92783;-82
2024/01/06 09:00:39;;;;;;;3.13;1.13;;;;;;;;;;4980248;28;96672;-83
2024/01/06 09:03:06;;;;;;;2.33;1.20;;;;;;;;;;4982371;28;92374;-83
2024/01/06 09:05:33;;;;;;;3.67;1.10;;;;;;;;;;4980506;28;93012;-84
2024/01/06 09:08:00;;;;;;;3.63;1.17;;;;;;;;;;4979419;28;94538;-83
2024/01/06 09:10:28;;;;;;;2.63;1.17;;;;;;;;;;4980304;28;94802;-84
2024/01/06 09:12:55;;;;;;;3.50;1.20;;;;;;;;;;4980455;28;95039;-82
2024/01/06 09:15:22;;;;;;;3.15;1.30;;;;;;;;;;4981139;28;92224;-83
2024/01/06 09:17:49;;;;;;;4.30;1.20;;;;;;;;;;4980916;28;95165;-83
2024/01/06 09:20:17;;;;;;;2.80;1.30;;;;;;;;;;4962961;28;95196;-84
2024/01/06 09:22:44;;;;;;;2.70;1.33;;;;;;;;;;4981537;28;92615;-79
2024/01/06 09:25:11;;;;;;;23.95;2.67;;;;;;;;;;4983184;28;95557;-81
2024/01/06 09:27:38;;;;;;;15.75;2.28;;;;;;;;;;4980288;28;92078;-82
2024/01/06 09:30:05;;;;;;;26.98;2.83;;;;;;;;;;4964430;28;95353;-81
2024/01/06 09:32:32;;;;;;;19.08;2.70;;;;;;;;;;4995520;27;95108;-81
2024/01/06 09:34:58;;;;;;;11.18;1.70;;;;;;;;;;4979188;28;92077;-81
2024/01/06 09:37:25;;;;;;;12.20;1.85;;;;;;;;;;4982495;28;95021;-79
2024/01/06 09:39:52;;;;;;;13.40;2.10;;;;;;;;;;4981769;28;95897;-79
2024/01/06 09:42:19;;;;;;;25.67;3.00;;;;;;;;;;4965771;28;92304;-83
2024/01/06 09:44:46;;;;;;;51.30;5.20;;;;;;;;;;4963387;28;94741;-81
2024/01/06 09:47:14;;;;;;;19.25;3.03;;;;;;;;;;4967366;28;92838;-79
2024/01/06 09:49:42;;;;;;;19.10;2.60;;;;;;;;;;4963264;28;94715;-82
2024/01/06 09:52:14;;;;;;;12.27;2.13;;;;;;;;;;4963087;28;93858;-80
2024/01/06 09:54:42;;;;;;;14.00;1.80;;;;;;;;;;4963953;28;92579;-81
2024/01/06 09:57:08;;;;;;;4.90;1.45;;;;;;;;;;4966167;28;94705;-81
2024/01/06 09:59:36;;;;;;;8.38;1.50;;;;;;;;;;4980589;28;94954;-80
2024/01/06 10:02:04;;;;;;;9.45;1.60;;;;;;;;;;4982875;28;92590;-81
2024/01/06 10:04:31;;;;;;;;;;;;;;;;;;4980461;28;94790;-82
2024/01/06 10:06:57;;;;;;;9.57;1.42;;;;;;;;;;4981786;28;111488;-80
2024/01/06 10:09:28;;;;;;;8.95;1.63;;;;;;;;;;4984311;28;92326;-81
2024/01/06 10:11:55;;;;;;;9.40;1.42;;;;;;;;;;4981295;28;92696;-80
2024/01/06 10:14:23;;;;;;;11.10;1.63;;;;;;;;;;4980468;28;91394;-82
2024/01/06 10:16:51;;;;;;;3.83;1.20;;;;;;;;;;4982050;28;92301;-80
2024/01/06 10:19:17;;;;;;;6.07;1.40;;;;;;;;;;4981963;28;92631;-80
2024/01/06 10:21:44;;;;;;;7.55;1.50;;;;;;;;;;4982258;28;94706;-80
2024/01/06 10:24:13;;;;;;;7.55;1.63;;;;;;;;;;4981698;28;97544;-79
2024/01/06 10:26:40;;;;;;;7.10;1.35;;;;;;;;;;4981116;28;97189;-79
2024/01/06 10:29:07;;;;;;;4.30;1.48;;;;;;;;;;4982424;28;92228;-80
2024/01/06 10:31:33;;;;;;;3.63;1.27;;;;;;;;;;4987867;28;97105;-82
2024/01/06 10:34:00;;;;;;;5.50;1.25;;;;;;;;;;4983072;28;92488;-82
2024/01/06 10:36:27;;;;;;;;;;;;;;;;;;4974224;28;94718;-82
2024/01/06 10:38:54;;;;;;;4.07;1.25;;;;;;;;;;4983726;28;102060;-81
2024/01/06 10:41:21;;;;;;;5.03;1.33;;;;;;;;;;4961641;28;92479;-81
2024/01/06 10:43:47;;;;;;;5.97;1.27;;;;;;;;;;4962837;28;94921;-81
2024/01/06 10:46:15;;;;;;;3.60;1.20;;;;;;;;;;4962093;28;95199;-81
2024/01/06 10:48:42;;;;;;;4.38;1.25;;;;;;;;;;4961639;28;92460;-81
2024/01/06 10:51:13;;;;;;;5.10;1.40;;;;;;;;;;4962650;28;93138;-81
2024/01/06 10:53:40;;;;;;;4.65;1.45;;;;;;;;;;4972307;28;92807;-81
2024/01/06 10:56:08;;;;;;;3.90;1.30;;;;;;;;;;4980058;28;95166;-80
2024/01/06 10:58:42;;;;;;;2.85;1.20;;;;;;;;;;4979865;28;92738;-82
2024/01/06 11:01:11;;;;;;;4.28;1.23;;;;;;;;;;4960922;28;92149;-80
2024/01/06 11:03:40;;;;;;;6.43;1.50;;;;;;;;;;4945311;28;94710;-81
2024/01/06 11:06:10;;;;;;;3.42;1.40;;;;;;;;;;4960248;28;95474;-81
2024/01/06 11:09:00;;;;;;;5.10;1.30;;;;;;;;;;4955559;28;92393;-81
2024/01/06 11:11:27;;;;;;;3.83;1.42;;;;;;;;;;4931136;28;94649;-81
2024/01/06 11:14:14;;;;;;;3.97;1.15;;;;;;;;;;4979905;28;92701;-80
2024/01/06 11:16:40;;;;;;;2.90;1.23;;;;;;;;;;4978021;28;99628;-82
2024/01/06 11:19:26;;;;;;;3.00;1.20;;;;;;;;;;4977531;28;92602;-82
2024/01/06 11:21:53;;;;;;;2.75;1.30;;;;;;;;;;4979828;28;92316;-83
2024/01/06 11:24:24;;;;;;;3.92;1.23;;;;;;;;;;4979433;28;92222;-82
2024/01/06 11:26:52;;;;;;;3.70;1.30;;;;;;;;;;4980227;28;93181;-82
2024/01/06 11:29:19;;;;;;;4.85;1.60;;;;;;;;;;4964429;28;91604;-81
2024/01/06 11:32:04;;;;;;;2.97;1.20;;;;;;;;;;4990064;28;92239;-81
2024/01/06 11:34:31;;;;;;;;;;;;;;;;;;4994810;28;95178;-82
2024/01/06 11:36:58;;;;;;;2.92;1.20;;;;;;;;;;4977828;28;99387;-82
2024/01/06 11:39:52;;;;;;;3.55;1.30;;;;;;;;;;4964834;28;94997;-81
2024/01/06 11:42:20;;;;;;;2.88;1.30;;;;;;;;;;4979214;28;92261;-83
2024/01/06 11:44:49;;;;;;;4.40;1.30;;;;;;;;;;4981059;28;92366;-81
2024/01/06 11:47:17;;;;;;;3.97;1.45;;;;;;;;;;4976429;28;95568;-82
2024/01/06 11:49:46;;;;;;;2.92;1.30;;;;;;;;;;4963048;28;92485;-82
2024/01/06 11:52:13;;;;;;;5.28;1.25;;;;;;;;;;4963156;28;94528;-81
2024/01/06 11:54:40;;;;;;;4.97;1.33;;;;;;;;;;4978498;28;96632;-82
2024/01/06 11:57:07;;;;;;;3.08;1.20;;;;;;;;;;4981909;28;91987;-82
2024/01/06 11:59:33;;;;;;;2.92;1.20;;;;;;;;;;4982083;28;93434;-83
2024/01/06 12:02:00;;;;;;;3.22;1.20;;;;;;;;;;4974473;28;94406;-82
2024/01/06 12:04:27;;;;;;;4.05;1.23;;;;;;;;;;4978897;28;97285;-81
2024/01/06 12:07:04;;;;;;;2.00;1.10;;;;;;;;;;4979321;28;95014;-82
2024/01/06 12:09:31;;;;;;;3.33;1.42;;;;;;;;;;4979732;28;92667;-82
2024/01/06 12:12:07;;;;;;;2.58;1.20;;;;;;;;;;4980749;28;92830;-82
2024/01/06 12:14:33;;;;;;;2.08;1.00;;;;;;;;;;4978491;28;94835;-82
2024/01/06 12:17:03;;;;;;;2.63;1.33;;;;;;;;;;4963406;28;92707;-82
2024/01/06 12:19:30;;;;;;;2.38;1.23;;;;;;;;;;4980194;28;95357;-82
2024/01/06 12:21:57;;;;;;;3.08;1.55;;;;;;;;;;4982033;28;93056;-81
2024/01/06 12:24:27;;;;;;;3.25;1.25;;;;;;;;;;4978164;28;94582;-82
2024/01/06 12:26:55;;;;;;;3.28;1.38;;;;;;;;;;4959754;28;97737;-81
2024/01/06 12:29:22;;;;;;;2.13;1.25;;;;;;;;;;4977326;28;92480;-82
2024/01/06 12:31:48;;;;;;;3.88;1.40;;;;;;;;;;4979816;28;92734;-82
2024/01/06 12:34:15;;;;;;;3.10;1.40;;;;;;;;;;4978630;28;92783;-82
2024/01/06 12:36:46;;;;;;;3.20;1.20;;;;;;;;;;4977470;28;92812;-82
2024/01/06 12:39:13;;;;;;;3.58;1.55;;;;;;;;;;4977909;28;100523;-81
2024/01/06 12:41:40;;;;;;;2.90;1.27;;;;;;;;;;4978767;28;96342;-81
2024/01/06 12:44:08;;;;;;;3.40;1.40;;;;;;;;;;4981249;28;91768;-81
2024/01/06 12:46:35;;;;;;;2.53;1.10;;;;;;;;;;4979528;28;92741;-81
2024/01/06 12:49:02;;;;;;;3.35;1.35;;;;;;;;;;4979006;28;92152;-81
2024/01/06 12:51:29;;;;;;;4.32;1.40;;;;;;;;;;4979219;28;95045;-82
2024/01/06 12:53:55;;;;;;;3.65;1.33;;;;;;;;;;4978786;28;95214;-81
2024/01/06 12:56:22;;;;;;;3.28;1.15;;;;;;;;;;4977497;28;92678;-81
2024/01/06 12:58:48;;;;;;;3.13;1.33;;;;;;;;;;4963109;28;95006;-81
2024/01/06 13:01:15;;;;;;;3.08;1.30;;;;;;;;;;4975517;28;95547;-81
2024/01/06 13:03:42;;;;;;;3.30;1.33;;;;;;;;;;4976682;28;92681;-80
2024/01/06 13:06:09;;;;;;;2.83;1.40;;;;;;;;;;4981314;28;95065;-81
2024/01/06 13:08:36;;;;;;;3.20;1.40;;;;;;;;;;4964150;28;91430;-80
2024/01/06 13:11:03;;;;;;;3.22;1.42;;;;;;;;;;4963890;28;92399;-81
2024/01/06 13:13:31;;;;;;;3.03;1.20;;;;;;;;;;4979649;28;94759;-82
2024/01/06 13:15:58;;;;;;;2.72;1.30;;;;;;;;;;4980315;28;95052;-81
2024/01/06 13:18:24;;;;;;;2.78;1.50;;;;;;;;;;4981804;28;97201;-81
2024/01/06 13:20:51;;;;;;;2.55;1.33;;;;;;;;;;4970213;28;92754;-79
2024/01/06 13:23:18;;;;;;;4.30;1.50;;;;;;;;;;4980136;28;92744;-79
2024/01/06 13:25:45;;;;;;;3.17;1.40;;;;;;;;;;4983444;28;94693;-80
2024/01/06 13:28:12;;;;;;;4.15;1.50;;;;;;;;;;4981673;28;92421;-81
2024/01/06 13:30:41;;;;;;;3.25;1.40;;;;;;;;;;4979768;28;99634;-80
2024/01/06 13:33:11;;;;;;;3.35;1.40;;;;;;;;;;4986201;28;99288;-81
2024/01/06 13:35:38;;;;;;;3.13;1.45;;;;;;;;;;4968500;28;92153;-82
2024/01/06 13:38:05;;;;;;;;;;;;;;;;;;4966510;28;92644;-81
2024/01/06 13:40:31;;;;;;;3.63;1.50;;;;;;;;;;4980531;28;100822;-81
2024/01/06 13:42:58;;;;;;;3.10;1.52;;;;;;;;;;4982549;28;95315;-82
2024/01/06 13:45:26;;;;;;;3.03;1.40;;;;;;;;;;4981770;28;94900;-79
2024/01/06 13:47:53;;;;;;;3.00;1.40;;;;;;;;;;4984373;28;92572;-79
2024/01/06 13:50:20;;;;;;;4.15;1.58;;;;;;;;;;4981659;28;92996;-80
2024/01/06 13:52:48;;;;;;;3.53;1.75;;;;;;;;;;4980958;28;95155;-80
2024/01/06 13:55:14;;;;;;;4.38;1.52;;;;;;;;;;4981393;28;92379;-80
2024/01/06 13:57:42;;;;;;;4.30;1.88;;;;;;;;;;4964991;28;94473;-80
2024/01/06 14:00:10;;;;;;;3.20;1.63;;;;;;;;;;4972781;28;93072;-80
2024/01/06 14:02:37;;;;;;;3.58;1.75;;;;;;;;;;4962075;28;92964;-81
2024/01/06 14:05:08;;;;;;;3.35;1.70;;;;;;;;;;4959760;28;95098;-79
2024/01/06 14:07:35;;;;;;;4.82;1.83;;;;;;;;;;4961193;28;95117;-80
2024/01/06 14:10:03;;;;;;;4.25;1.60;;;;;;;;;;4967934;28;92761;-80
2024/01/06 14:12:31;;;;;;;3.95;1.77;;;;;;;;;;4963473;28;95272;-80
2024/01/06 14:14:58;;;;;;;5.15;1.80;;;;;;;;;;4980222;28;92736;-80
2024/01/06 14:17:25;;;;;;;;;;;;;;;;;;4981474;28;94611;-81
2024/01/06 14:19:52;;;;;;;3.80;1.70;;;;;;;;;;4985862;28;92762;-81
2024/01/06 14:22:19;;;;;;;3.47;1.73;;;;;;;;;;4983241;28;91434;-83
2024/01/06 14:24:45;;;;;;;3.53;1.52;;;;;;;;;;4977464;28;92582;-80
2024/01/06 14:27:12;;;;;;;4.15;1.83;;;;;;;;;;4982964;28;93386;-79
2024/01/06 14:29:39;;;;;;;3.72;1.67;;;;;;;;;;4964310;28;94462;-78
2024/01/06 14:32:06;;;;;;;4.68;1.70;;;;;;;;;;4997352;28;95076;-80
2024/01/06 14:34:32;;;;;;;3.38;1.60;;;;;;;;;;4991270;27;92307;-80
2024/01/06 14:36:59;;;;;;;3.97;1.65;;;;;;;;;;4962154;28;94512;-80
2024/01/06 14:39:26;;;;;;;3.47;1.60;;;;;;;;;;4976513;28;95078;-80
2024/01/06 14:41:52;;;;;;;4.70;2.10;;;;;;;;;;4981861;28;92127;-79
2024/01/06 14:44:22;;;;;;;4.22;1.73;;;;;;;;;;4980450;28;94904;-80